sensor_id;sensor_type;location;lat;lon;timestamp;temperature;humidity
12708;DHT22;6418;50.824;4.718;2023-03-25T00:02:19;8.50;99.90
12708;DHT22;6418;50.824;4.718;2023-03-25T00:04:49;8.50;99.90
12708;DHT22;6418;50.824;4.718;2023-03-25T00:07:16;9.30;99.90
12708;DHT22;6418;50.824;4.718;2023-03-25T00:09:45;8.40;99.90
12708;DHT22;6418;50.824;4.718;2023-03-25T00:12:14;8.50;99.90
12708;DHT22;6418;50.824;4.718;2023-03-25T00:14:41;8.50;99.90
12708;DHT22;6418;50.824;4.718;2023-03-25T00:17:08;8.50;99.90
12708;DHT22;6418;50.824;4.718;2023-03-25T00:19:38;8.50;99.90
12708;DHT22;6418;50.824;4.718;2023-03-25T00:22:06;8.50;99.90
12708;DHT22;6418;50.824;4.718;2023-03-25T00:24:33;8.50;99.90
12708;DHT22;6418;50.824;4.718;2023-03-25T00:27:01;8.50;99.90
12708;DHT22;6418;50.824;4.718;2023-03-25T00:29:29;8.50;99.90
12708;DHT22;6418;50.824;4.718;2023-03-25T00:31:55;8.50;99.90
12708;DHT22;6418;50.824;4.718;2023-03-25T00:34:22;8.50;99.90
12708;DHT22;6418;50.824;4.718;2023-03-25T00:36:49;8.80;99.90
12708;DHT22;6418;50.824;4.718;2023-03-25T00:39:16;8.50;99.90
12708;DHT22;6418;50.824;4.718;2023-03-25T00:41:43;8.50;99.90
12708;DHT22;6418;50.824;4.718;2023-03-25T00:44:11;8.60;99.90
12708;DHT22;6418;50.824;4.718;2023-03-25T00:46:38;8.50;99.90
12708;DHT22;6418;50.824;4.718;2023-03-25T00:49:06;8.50;99.90
12708;DHT22;6418;50.824;4.718;2023-03-25T00:51:33;8.50;99.90
12708;DHT22;6418;50.824;4.718;2023-03-25T00:54:01;8.50;99.90
12708;DHT22;6418;50.824;4.718;2023-03-25T00:56:28;8.50;99.90
12708;DHT22;6418;50.824;4.718;2023-03-25T00:58:56;8.50;99.90
12708;DHT22;6418;50.824;4.718;2023-03-25T01:01:26;8.50;99.90
12708;DHT22;6418;50.824;4.718;2023-03-25T01:03:54;8.50;99.90
12708;DHT22;6418;50.824;4.718;2023-03-25T01:06:25;8.60;99.90
12708;DHT22;6418;50.824;4.718;2023-03-25T01:08:58;8.60;99.90
12708;DHT22;6418;50.824;4.718;2023-03-25T01:11:27;8.60;99.90
12708;DHT22;6418;50.824;4.718;2023-03-25T01:13:55;8.60;99.90
12708;DHT22;6418;50.824;4.718;2023-03-25T01:16:25;8.70;99.90
12708;DHT22;6418;50.824;4.718;2023-03-25T01:18:53;8.60;99.90
12708;DHT22;6418;50.824;4.718;2023-03-25T01:21:21;8.60;99.90
12708;DHT22;6418;50.824;4.718;2023-03-25T01:23:48;8.60;99.90
12708;DHT22;6418;50.824;4.718;2023-03-25T01:26:15;8.60;99.90
12708;DHT22;6418;50.824;4.718;2023-03-25T01:28:43;8.60;99.90
12708;DHT22;6418;50.824;4.718;2023-03-25T01:31:12;8.60;99.90
12708;DHT22;6418;50.824;4.718;2023-03-25T01:33:41;8.50;99.90
12708;DHT22;6418;50.824;4.718;2023-03-25T01:36:09;8.60;99.90
12708;DHT22;6418;50.824;4.718;2023-03-25T01:38:39;8.60;99.90
12708;DHT22;6418;50.824;4.718;2023-03-25T01:41:07;8.60;99.90
12708;DHT22;6418;50.824;4.718;2023-03-25T01:43:35;8.60;99.90
12708;DHT22;6418;50.824;4.718;2023-03-25T01:46:02;8.60;99.90
12708;DHT22;6418;50.824;4.718;2023-03-25T01:48:32;8.60;99.90
12708;DHT22;6418;50.824;4.718;2023-03-25T01:51:05;8.60;99.90
12708;DHT22;6418;50.824;4.718;2023-03-25T01:53:34;8.60;99.90
12708;DHT22;6418;50.824;4.718;2023-03-25T01:56:02;8.60;99.90
12708;DHT22;6418;50.824;4.718;2023-03-25T01:58:32;8.60;99.90
12708;DHT22;6418;50.824;4.718;2023-03-25T02:01:00;8.60;99.90
12708;DHT22;6418;50.824;4.718;2023-03-25T02:03:29;8.50;99.90
12708;DHT22;6418;50.824;4.718;2023-03-25T02:06:06;8.60;99.90
12708;DHT22;6418;50.824;4.718;2023-03-25T02:08:39;8.60;99.90
12708;DHT22;6418;50.824;4.718;2023-03-25T02:11:07;8.60;99.90
12708;DHT22;6418;50.824;4.718;2023-03-25T02:13:35;8.60;99.90
12708;DHT22;6418;50.824;4.718;2023-03-25T02:16:13;8.60;99.90
12708;DHT22;6418;50.824;4.718;2023-03-25T02:18:52;8.60;99.90
12708;DHT22;6418;50.824;4.718;2023-03-25T02:21:55;8.60;99.90
12708;DHT22;6418;50.824;4.718;2023-03-25T02:24:47;8.50;99.90
12708;DHT22;6418;50.824;4.718;2023-03-25T02:27:26;8.50;99.90
12708;DHT22;6418;50.824;4.718;2023-03-25T02:30:25;8.50;99.90
12708;DHT22;6418;50.824;4.718;2023-03-25T02:39:10;8.50;99.90
12708;DHT22;6418;50.824;4.718;2023-03-25T02:41:45;8.60;99.90
12708;DHT22;6418;50.824;4.718;2023-03-25T02:44:17;8.40;99.90
12708;DHT22;6418;50.824;4.718;2023-03-25T02:46:48;8.50;99.90
12708;DHT22;6418;50.824;4.718;2023-03-25T02:49:20;8.50;99.90
12708;DHT22;6418;50.824;4.718;2023-03-25T02:51:52;8.50;99.90
12708;DHT22;6418;50.824;4.718;2023-03-25T02:54:23;8.50;99.90
12708;DHT22;6418;50.824;4.718;2023-03-25T02:56:53;8.40;99.90
12708;DHT22;6418;50.824;4.718;2023-03-25T02:59:22;8.50;99.90
12708;DHT22;6418;50.824;4.718;2023-03-25T03:01:53;8.40;99.90
12708;DHT22;6418;50.824;4.718;2023-03-25T03:04:23;8.40;99.90
12708;DHT22;6418;50.824;4.718;2023-03-25T03:06:51;8.40;99.90
12708;DHT22;6418;50.824;4.718;2023-03-25T03:09:35;8.30;99.90
12708;DHT22;6418;50.824;4.718;2023-03-25T03:12:24;8.20;99.90
12708;DHT22;6418;50.824;4.718;2023-03-25T03:15:05;8.30;99.90
12708;DHT22;6418;50.824;4.718;2023-03-25T03:17:41;8.30;99.90
12708;DHT22;6418;50.824;4.718;2023-03-25T03:20:16;8.30;99.90
12708;DHT22;6418;50.824;4.718;2023-03-25T03:22:46;8.30;99.90
12708;DHT22;6418;50.824;4.718;2023-03-25T03:25:25;8.20;99.90
12708;DHT22;6418;50.824;4.718;2023-03-25T03:27:55;8.40;99.90
12708;DHT22;6418;50.824;4.718;2023-03-25T03:30:28;8.30;99.90
12708;DHT22;6418;50.824;4.718;2023-03-25T03:33:01;8.40;99.90
12708;DHT22;6418;50.824;4.718;2023-03-25T03:35:36;8.40;99.90
12708;DHT22;6418;50.824;4.718;2023-03-25T03:38:08;8.40;99.90
12708;DHT22;6418;50.824;4.718;2023-03-25T03:40:40;8.40;99.90
12708;DHT22;6418;50.824;4.718;2023-03-25T03:43:13;8.40;99.90
12708;DHT22;6418;50.824;4.718;2023-03-25T03:45:43;8.40;99.90
12708;DHT22;6418;50.824;4.718;2023-03-25T03:48:17;8.40;99.90
12708;DHT22;6418;50.824;4.718;2023-03-25T03:50:50;8.40;99.90
12708;DHT22;6418;50.824;4.718;2023-03-25T03:53:22;8.40;99.90
12708;DHT22;6418;50.824;4.718;2023-03-25T03:55:57;8.40;99.90
12708;DHT22;6418;50.824;4.718;2023-03-25T03:58:29;8.40;99.90
12708;DHT22;6418;50.824;4.718;2023-03-25T04:01:02;8.40;99.90
12708;DHT22;6418;50.824;4.718;2023-03-25T04:03:35;8.30;99.90
12708;DHT22;6418;50.824;4.718;2023-03-25T04:06:10;8.30;99.90
12708;DHT22;6418;50.824;4.718;2023-03-25T04:08:48;8.30;99.90
12708;DHT22;6418;50.824;4.718;2023-03-25T04:11:22;8.30;99.90
12708;DHT22;6418;50.824;4.718;2023-03-25T04:13:53;8.20;99.90
12708;DHT22;6418;50.824;4.718;2023-03-25T04:16:23;8.30;99.90
12708;DHT22;6418;50.824;4.718;2023-03-25T04:18:50;8.30;99.90
12708;DHT22;6418;50.824;4.718;2023-03-25T04:21:18;8.30;99.90
12708;DHT22;6418;50.824;4.718;2023-03-25T04:23:45;8.30;99.90
12708;DHT22;6418;50.824;4.718;2023-03-25T04:26:12;8.20;99.90
12708;DHT22;6418;50.824;4.718;2023-03-25T04:28:41;8.20;99.90
12708;DHT22;6418;50.824;4.718;2023-03-25T04:31:12;8.20;99.90
12708;DHT22;6418;50.824;4.718;2023-03-25T04:33:40;8.20;99.90
12708;DHT22;6418;50.824;4.718;2023-03-25T04:36:11;8.20;99.90
12708;DHT22;6418;50.824;4.718;2023-03-25T04:38:39;8.20;99.90
12708;DHT22;6418;50.824;4.718;2023-03-25T04:41:06;8.20;99.90
12708;DHT22;6418;50.824;4.718;2023-03-25T04:43:35;8.20;99.90
12708;DHT22;6418;50.824;4.718;2023-03-25T04:46:05;8.20;99.90
12708;DHT22;6418;50.824;4.718;2023-03-25T04:48:35;8.10;99.90
12708;DHT22;6418;50.824;4.718;2023-03-25T04:51:06;8.10;99.90
12708;DHT22;6418;50.824;4.718;2023-03-25T04:53:35;8.10;99.90
12708;DHT22;6418;50.824;4.718;2023-03-25T04:56:02;8.20;99.90
12708;DHT22;6418;50.824;4.718;2023-03-25T04:58:29;8.10;99.90
12708;DHT22;6418;50.824;4.718;2023-03-25T05:00:57;8.10;99.90
12708;DHT22;6418;50.824;4.718;2023-03-25T05:03:31;8.10;99.90
12708;DHT22;6418;50.824;4.718;2023-03-25T05:05:59;8.10;99.90
12708;DHT22;6418;50.824;4.718;2023-03-25T05:08:26;8.10;99.90
12708;DHT22;6418;50.824;4.718;2023-03-25T05:10:53;8.10;99.90
12708;DHT22;6418;50.824;4.718;2023-03-25T05:13:20;8.20;99.90
12708;DHT22;6418;50.824;4.718;2023-03-25T05:15:47;8.10;99.90
12708;DHT22;6418;50.824;4.718;2023-03-25T05:18:16;8.10;99.90
12708;DHT22;6418;50.824;4.718;2023-03-25T05:20:45;8.10;99.90
12708;DHT22;6418;50.824;4.718;2023-03-25T05:23:15;8.20;99.90
12708;DHT22;6418;50.824;4.718;2023-03-25T05:25:43;8.20;99.90
12708;DHT22;6418;50.824;4.718;2023-03-25T05:28:10;8.20;99.90
12708;DHT22;6418;50.824;4.718;2023-03-25T05:30:38;8.20;99.90
12708;DHT22;6418;50.824;4.718;2023-03-25T05:33:06;8.20;99.90
12708;DHT22;6418;50.824;4.718;2023-03-25T05:35:35;8.20;99.90
12708;DHT22;6418;50.824;4.718;2023-03-25T05:38:03;8.10;99.90
12708;DHT22;6418;50.824;4.718;2023-03-25T05:40:32;8.20;99.90
12708;DHT22;6418;50.824;4.718;2023-03-25T05:43:00;8.20;99.90
12708;DHT22;6418;50.824;4.718;2023-03-25T05:45:28;8.30;99.90
12708;DHT22;6418;50.824;4.718;2023-03-25T05:47:55;8.20;99.90
12708;DHT22;6418;50.824;4.718;2023-03-25T05:50:23;8.30;99.90
12708;DHT22;6418;50.824;4.718;2023-03-25T05:52:52;8.30;99.90
12708;DHT22;6418;50.824;4.718;2023-03-25T05:55:22;8.30;99.90
12708;DHT22;6418;50.824;4.718;2023-03-25T05:57:49;8.30;99.90
12708;DHT22;6418;50.824;4.718;2023-03-25T06:00:18;8.40;99.90
12708;DHT22;6418;50.824;4.718;2023-03-25T06:02:46;8.30;99.90
12708;DHT22;6418;50.824;4.718;2023-03-25T06:05:14;8.30;99.90
12708;DHT22;6418;50.824;4.718;2023-03-25T06:07:43;8.30;99.90
12708;DHT22;6418;50.824;4.718;2023-03-25T06:10:12;8.30;99.90
12708;DHT22;6418;50.824;4.718;2023-03-25T06:12:42;8.30;99.90
12708;DHT22;6418;50.824;4.718;2023-03-25T06:15:11;8.30;99.90
12708;DHT22;6418;50.824;4.718;2023-03-25T06:17:39;8.30;99.90
12708;DHT22;6418;50.824;4.718;2023-03-25T06:20:09;8.30;99.90
12708;DHT22;6418;50.824;4.718;2023-03-25T06:22:38;8.30;99.90
12708;DHT22;6418;50.824;4.718;2023-03-25T06:25:05;8.30;99.90
12708;DHT22;6418;50.824;4.718;2023-03-25T06:27:33;8.30;99.90
12708;DHT22;6418;50.824;4.718;2023-03-25T06:30:07;8.20;99.90
12708;DHT22;6418;50.824;4.718;2023-03-25T06:32:35;8.20;99.90
12708;DHT22;6418;50.824;4.718;2023-03-25T06:35:02;8.20;99.90
12708;DHT22;6418;50.824;4.718;2023-03-25T06:37:29;8.20;99.90
12708;DHT22;6418;50.824;4.718;2023-03-25T06:39:56;8.30;99.90
12708;DHT22;6418;50.824;4.718;2023-03-25T06:42:24;8.30;99.90
12708;DHT22;6418;50.824;4.718;2023-03-25T06:44:52;8.40;99.90
12708;DHT22;6418;50.824;4.718;2023-03-25T06:47:20;8.40;99.90
12708;DHT22;6418;50.824;4.718;2023-03-25T06:49:47;8.40;99.90
12708;DHT22;6418;50.824;4.718;2023-03-25T06:52:15;8.60;99.90
12708;DHT22;6418;50.824;4.718;2023-03-25T06:54:41;8.60;99.90
12708;DHT22;6418;50.824;4.718;2023-03-25T06:57:08;8.60;99.90
12708;DHT22;6418;50.824;4.718;2023-03-25T06:59:35;8.60;99.90
12708;DHT22;6418;50.824;4.718;2023-03-25T07:02:02;8.50;99.90
12708;DHT22;6418;50.824;4.718;2023-03-25T07:04:30;8.60;99.90
12708;DHT22;6418;50.824;4.718;2023-03-25T07:06:57;8.50;99.90
12708;DHT22;6418;50.824;4.718;2023-03-25T07:09:24;8.60;99.90
12708;DHT22;6418;50.824;4.718;2023-03-25T07:11:51;8.60;99.90
12708;DHT22;6418;50.824;4.718;2023-03-25T07:14:18;8.60;99.90
12708;DHT22;6418;50.824;4.718;2023-03-25T07:16:45;8.70;99.90
12708;DHT22;6418;50.824;4.718;2023-03-25T07:19:12;8.70;99.90
12708;DHT22;6418;50.824;4.718;2023-03-25T07:21:40;8.70;99.90
12708;DHT22;6418;50.824;4.718;2023-03-25T07:24:07;8.70;99.90
12708;DHT22;6418;50.824;4.718;2023-03-25T07:26:34;8.80;99.90
12708;DHT22;6418;50.824;4.718;2023-03-25T07:29:01;8.80;99.90
12708;DHT22;6418;50.824;4.718;2023-03-25T07:31:28;8.80;99.90
12708;DHT22;6418;50.824;4.718;2023-03-25T07:33:55;8.90;99.90
12708;DHT22;6418;50.824;4.718;2023-03-25T07:36:23;9.00;99.90
12708;DHT22;6418;50.824;4.718;2023-03-25T07:38:52;8.90;99.90
12708;DHT22;6418;50.824;4.718;2023-03-25T07:41:20;9.10;99.90
12708;DHT22;6418;50.824;4.718;2023-03-25T07:43:46;9.10;99.90
12708;DHT22;6418;50.824;4.718;2023-03-25T07:46:13;9.10;99.90
12708;DHT22;6418;50.824;4.718;2023-03-25T07:48:40;9.20;99.90
12708;DHT22;6418;50.824;4.718;2023-03-25T07:51:07;9.20;99.90
12708;DHT22;6418;50.824;4.718;2023-03-25T07:53:34;9.20;99.90
12708;DHT22;6418;50.824;4.718;2023-03-25T07:56:06;9.30;99.90
12708;DHT22;6418;50.824;4.718;2023-03-25T07:58:33;9.30;99.90
12708;DHT22;6418;50.824;4.718;2023-03-25T08:01:00;9.40;99.90
12708;DHT22;6418;50.824;4.718;2023-03-25T08:03:27;9.40;99.90
12708;DHT22;6418;50.824;4.718;2023-03-25T08:05:54;9.40;99.90
12708;DHT22;6418;50.824;4.718;2023-03-25T08:08:21;9.50;99.90
12708;DHT22;6418;50.824;4.718;2023-03-25T08:10:49;9.60;99.90
12708;DHT22;6418;50.824;4.718;2023-03-25T08:13:18;9.60;99.90
12708;DHT22;6418;50.824;4.718;2023-03-25T08:15:45;9.60;99.90
12708;DHT22;6418;50.824;4.718;2023-03-25T08:18:11;9.70;99.90
12708;DHT22;6418;50.824;4.718;2023-03-25T08:20:39;9.80;99.90
12708;DHT22;6418;50.824;4.718;2023-03-25T08:23:06;9.80;99.90
12708;DHT22;6418;50.824;4.718;2023-03-25T08:25:35;9.90;99.90
12708;DHT22;6418;50.824;4.718;2023-03-25T08:28:03;9.90;99.90
12708;DHT22;6418;50.824;4.718;2023-03-25T08:30:32;9.80;99.90
12708;DHT22;6418;50.824;4.718;2023-03-25T08:33:03;9.80;99.90
12708;DHT22;6418;50.824;4.718;2023-03-25T08:35:33;9.80;99.90
12708;DHT22;6418;50.824;4.718;2023-03-25T08:38:00;9.70;99.90
12708;DHT22;6418;50.824;4.718;2023-03-25T08:40:29;9.70;99.90
12708;DHT22;6418;50.824;4.718;2023-03-25T08:42:57;9.70;99.90
12708;DHT22;6418;50.824;4.718;2023-03-25T08:45:23;9.70;99.90
12708;DHT22;6418;50.824;4.718;2023-03-25T08:47:52;9.70;99.90
12708;DHT22;6418;50.824;4.718;2023-03-25T08:50:18;9.60;99.90
12708;DHT22;6418;50.824;4.718;2023-03-25T08:52:45;9.70;99.90
12708;DHT22;6418;50.824;4.718;2023-03-25T08:55:13;9.60;99.90
12708;DHT22;6418;50.824;4.718;2023-03-25T08:57:40;9.70;99.90
12708;DHT22;6418;50.824;4.718;2023-03-25T09:00:09;9.70;99.90
12708;DHT22;6418;50.824;4.718;2023-03-25T09:02:39;9.80;99.90
12708;DHT22;6418;50.824;4.718;2023-03-25T09:05:09;9.80;99.90
12708;DHT22;6418;50.824;4.718;2023-03-25T09:07:36;9.80;99.90
12708;DHT22;6418;50.824;4.718;2023-03-25T09:10:06;9.80;99.90
12708;DHT22;6418;50.824;4.718;2023-03-25T09:12:33;9.80;99.90
12708;DHT22;6418;50.824;4.718;2023-03-25T09:15:00;9.80;99.90
12708;DHT22;6418;50.824;4.718;2023-03-25T09:17:27;9.80;99.90
12708;DHT22;6418;50.824;4.718;2023-03-25T09:19:54;9.80;99.90
12708;DHT22;6418;50.824;4.718;2023-03-25T09:22:23;9.80;99.90
12708;DHT22;6418;50.824;4.718;2023-03-25T09:24:54;9.80;99.90
12708;DHT22;6418;50.824;4.718;2023-03-25T09:27:22;9.80;99.90
12708;DHT22;6418;50.824;4.718;2023-03-25T09:29:49;9.80;99.90
12708;DHT22;6418;50.824;4.718;2023-03-25T09:32:15;9.80;99.90
12708;DHT22;6418;50.824;4.718;2023-03-25T09:34:43;9.80;99.90
12708;DHT22;6418;50.824;4.718;2023-03-25T09:37:10;9.70;99.90
12708;DHT22;6418;50.824;4.718;2023-03-25T09:39:38;9.70;99.90
12708;DHT22;6418;50.824;4.718;2023-03-25T09:42:31;9.70;99.90
12708;DHT22;6418;50.824;4.718;2023-03-25T09:45:11;9.80;99.90
12708;DHT22;6418;50.824;4.718;2023-03-25T09:47:51;9.80;99.90
12708;DHT22;6418;50.824;4.718;2023-03-25T09:50:20;9.90;99.90
12708;DHT22;6418;50.824;4.718;2023-03-25T09:52:51;9.90;99.90
12708;DHT22;6418;50.824;4.718;2023-03-25T09:55:23;10.00;99.90
12708;DHT22;6418;50.824;4.718;2023-03-25T09:57:55;10.10;99.90
12708;DHT22;6418;50.824;4.718;2023-03-25T10:00:24;10.10;99.90
12708;DHT22;6418;50.824;4.718;2023-03-25T10:03:00;10.20;99.90
12708;DHT22;6418;50.824;4.718;2023-03-25T10:05:44;10.30;99.90
12708;DHT22;6418;50.824;4.718;2023-03-25T10:08:19;10.30;99.90
12708;DHT22;6418;50.824;4.718;2023-03-25T10:10:58;10.20;99.90
12708;DHT22;6418;50.824;4.718;2023-03-25T10:13:36;10.40;99.90
12708;DHT22;6418;50.824;4.718;2023-03-25T10:16:10;10.30;99.90
12708;DHT22;6418;50.824;4.718;2023-03-25T10:18:47;10.30;99.90
12708;DHT22;6418;50.824;4.718;2023-03-25T10:21:21;10.30;99.90
12708;DHT22;6418;50.824;4.718;2023-03-25T10:23:57;10.30;99.90
12708;DHT22;6418;50.824;4.718;2023-03-25T10:26:32;10.40;99.90
12708;DHT22;6418;50.824;4.718;2023-03-25T10:29:04;10.30;99.90
12708;DHT22;6418;50.824;4.718;2023-03-25T10:31:35;10.40;99.90
12708;DHT22;6418;50.824;4.718;2023-03-25T10:34:07;10.40;99.90
12708;DHT22;6418;50.824;4.718;2023-03-25T10:36:40;10.50;99.90
12708;DHT22;6418;50.824;4.718;2023-03-25T10:39:13;10.60;99.90
12708;DHT22;6418;50.824;4.718;2023-03-25T10:41:46;10.70;99.90
12708;DHT22;6418;50.824;4.718;2023-03-25T10:44:17;10.80;99.90
12708;DHT22;6418;50.824;4.718;2023-03-25T10:46:46;10.90;99.90
12708;DHT22;6418;50.824;4.718;2023-03-25T10:49:18;10.90;99.90
12708;DHT22;6418;50.824;4.718;2023-03-25T10:51:46;10.90;99.90
12708;DHT22;6418;50.824;4.718;2023-03-25T10:54:14;10.90;99.90
12708;DHT22;6418;50.824;4.718;2023-03-25T10:56:47;11.00;99.90
12708;DHT22;6418;50.824;4.718;2023-03-25T10:59:20;11.00;99.90
12708;DHT22;6418;50.824;4.718;2023-03-25T11:01:48;11.10;99.90
12708;DHT22;6418;50.824;4.718;2023-03-25T11:04:18;11.10;99.90
12708;DHT22;6418;50.824;4.718;2023-03-25T11:06:50;11.20;99.90
12708;DHT22;6418;50.824;4.718;2023-03-25T11:09:23;11.20;99.90
12708;DHT22;6418;50.824;4.718;2023-03-25T11:11:53;11.20;99.90
12708;DHT22;6418;50.824;4.718;2023-03-25T11:14:22;11.00;99.90
12708;DHT22;6418;50.824;4.718;2023-03-25T11:16:55;10.90;99.90
12708;DHT22;6418;50.824;4.718;2023-03-25T11:19:25;10.90;99.90
12708;DHT22;6418;50.824;4.718;2023-03-25T11:21:56;10.80;99.90
12708;DHT22;6418;50.824;4.718;2023-03-25T11:24:30;10.80;99.90
12708;DHT22;6418;50.824;4.718;2023-03-25T11:27:00;10.80;99.90
12708;DHT22;6418;50.824;4.718;2023-03-25T11:29:28;10.70;99.90
12708;DHT22;6418;50.824;4.718;2023-03-25T11:32:04;10.80;99.90
12708;DHT22;6418;50.824;4.718;2023-03-25T11:34:32;10.80;99.90
12708;DHT22;6418;50.824;4.718;2023-03-25T11:37:15;10.80;99.90
12708;DHT22;6418;50.824;4.718;2023-03-25T11:39:48;10.80;99.90
12708;DHT22;6418;50.824;4.718;2023-03-25T11:42:27;10.90;99.90
12708;DHT22;6418;50.824;4.718;2023-03-25T11:44:58;10.90;99.90
12708;DHT22;6418;50.824;4.718;2023-03-25T11:47:31;10.90;99.90
12708;DHT22;6418;50.824;4.718;2023-03-25T11:49:58;10.90;99.90
12708;DHT22;6418;50.824;4.718;2023-03-25T11:52:27;11.00;99.90
12708;DHT22;6418;50.824;4.718;2023-03-25T11:54:57;11.10;99.90
12708;DHT22;6418;50.824;4.718;2023-03-25T11:57:33;11.10;99.90
12708;DHT22;6418;50.824;4.718;2023-03-25T12:00:04;11.10;99.90
12708;DHT22;6418;50.824;4.718;2023-03-25T12:02:38;11.00;99.90
12708;DHT22;6418;50.824;4.718;2023-03-25T12:05:11;10.90;99.90
12708;DHT22;6418;50.824;4.718;2023-03-25T12:07:43;10.80;99.90
12708;DHT22;6418;50.824;4.718;2023-03-25T12:10:17;10.80;99.90
12708;DHT22;6418;50.824;4.718;2023-03-25T12:12:54;10.70;99.90
12708;DHT22;6418;50.824;4.718;2023-03-25T12:15:32;10.50;99.90
12708;DHT22;6418;50.824;4.718;2023-03-25T12:18:15;10.60;99.90
12708;DHT22;6418;50.824;4.718;2023-03-25T12:20:56;10.50;99.90
12708;DHT22;6418;50.824;4.718;2023-03-25T12:23:35;10.40;99.90
12708;DHT22;6418;50.824;4.718;2023-03-25T12:26:09;10.30;99.90
12708;DHT22;6418;50.824;4.718;2023-03-25T12:29:11;10.00;99.90
12708;DHT22;6418;50.824;4.718;2023-03-25T12:31:49;9.90;99.90
12708;DHT22;6418;50.824;4.718;2023-03-25T12:34:28;9.80;99.90
12708;DHT22;6418;50.824;4.718;2023-03-25T12:37:02;9.90;99.90
12708;DHT22;6418;50.824;4.718;2023-03-25T12:39:43;10.00;99.90
12708;DHT22;6418;50.824;4.718;2023-03-25T12:42:26;10.00;99.90
12708;DHT22;6418;50.824;4.718;2023-03-25T12:45:05;10.00;99.90
12708;DHT22;6418;50.824;4.718;2023-03-25T12:47:41;9.90;99.90
12708;DHT22;6418;50.824;4.718;2023-03-25T12:50:33;9.90;99.90
12708;DHT22;6418;50.824;4.718;2023-03-25T12:53:13;9.90;99.90
12708;DHT22;6418;50.824;4.718;2023-03-25T12:55:54;9.90;99.90
12708;DHT22;6418;50.824;4.718;2023-03-25T12:58:44;9.90;99.90
12708;DHT22;6418;50.824;4.718;2023-03-25T13:01:23;9.90;99.90
12708;DHT22;6418;50.824;4.718;2023-03-25T13:04:01;9.80;99.90
12708;DHT22;6418;50.824;4.718;2023-03-25T13:06:38;9.80;99.90
12708;DHT22;6418;50.824;4.718;2023-03-25T13:09:11;9.80;99.90
12708;DHT22;6418;50.824;4.718;2023-03-25T13:11:42;9.80;99.90
12708;DHT22;6418;50.824;4.718;2023-03-25T13:14:15;9.80;99.90
12708;DHT22;6418;50.824;4.718;2023-03-25T13:16:44;9.90;99.90
12708;DHT22;6418;50.824;4.718;2023-03-25T13:19:16;9.90;99.90
12708;DHT22;6418;50.824;4.718;2023-03-25T13:21:47;9.80;99.90
12708;DHT22;6418;50.824;4.718;2023-03-25T13:24:18;9.90;99.90
12708;DHT22;6418;50.824;4.718;2023-03-25T13:26:47;10.00;99.90
12708;DHT22;6418;50.824;4.718;2023-03-25T13:29:22;10.00;99.90
12708;DHT22;6418;50.824;4.718;2023-03-25T13:31:56;10.00;99.90
12708;DHT22;6418;50.824;4.718;2023-03-25T13:34:27;10.00;99.90
12708;DHT22;6418;50.824;4.718;2023-03-25T13:37:05;10.00;99.90
12708;DHT22;6418;50.824;4.718;2023-03-25T13:39:43;10.00;99.90
12708;DHT22;6418;50.824;4.718;2023-03-25T13:42:16;10.00;99.90
12708;DHT22;6418;50.824;4.718;2023-03-25T13:44:44;10.00;99.90
12708;DHT22;6418;50.824;4.718;2023-03-25T13:47:16;10.10;99.90
12708;DHT22;6418;50.824;4.718;2023-03-25T13:49:49;10.10;99.90
12708;DHT22;6418;50.824;4.718;2023-03-25T13:52:17;10.20;99.90
12708;DHT22;6418;50.824;4.718;2023-03-25T13:54:48;10.20;99.90
12708;DHT22;6418;50.824;4.718;2023-03-25T13:57:36;10.30;99.90
12708;DHT22;6418;50.824;4.718;2023-03-25T14:00:26;10.40;99.90
12708;DHT22;6418;50.824;4.718;2023-03-25T14:03:24;10.50;99.90
12708;DHT22;6418;50.824;4.718;2023-03-25T14:09:03;10.80;99.90
12708;DHT22;6418;50.824;4.718;2023-03-25T14:11:39;10.90;99.90
12708;DHT22;6418;50.824;4.718;2023-03-25T14:14:10;11.00;99.90
12708;DHT22;6418;50.824;4.718;2023-03-25T14:16:40;11.10;99.90
12708;DHT22;6418;50.824;4.718;2023-03-25T14:19:12;11.20;99.90
12708;DHT22;6418;50.824;4.718;2023-03-25T14:21:42;11.30;99.90
12708;DHT22;6418;50.824;4.718;2023-03-25T14:24:15;11.40;99.90
12708;DHT22;6418;50.824;4.718;2023-03-25T14:26:46;11.50;99.90
12708;DHT22;6418;50.824;4.718;2023-03-25T14:29:35;11.70;99.90
12708;DHT22;6418;50.824;4.718;2023-03-25T14:32:06;11.70;99.90
12708;DHT22;6418;50.824;4.718;2023-03-25T14:34:51;11.90;99.90
12708;DHT22;6418;50.824;4.718;2023-03-25T14:37:27;12.00;99.90
12708;DHT22;6418;50.824;4.718;2023-03-25T14:39:57;12.10;99.90
12708;DHT22;6418;50.824;4.718;2023-03-25T14:42:38;12.20;99.90
12708;DHT22;6418;50.824;4.718;2023-03-25T14:45:37;12.30;99.90
12708;DHT22;6418;50.824;4.718;2023-03-25T14:48:23;12.40;99.90
12708;DHT22;6418;50.824;4.718;2023-03-25T14:51:09;12.40;99.90
12708;DHT22;6418;50.824;4.718;2023-03-25T14:53:40;12.50;99.90
12708;DHT22;6418;50.824;4.718;2023-03-25T14:56:15;12.50;99.90
12708;DHT22;6418;50.824;4.718;2023-03-25T14:58:43;12.50;99.90
12708;DHT22;6418;50.824;4.718;2023-03-25T15:01:13;12.50;99.90
12708;DHT22;6418;50.824;4.718;2023-03-25T15:03:43;12.40;99.90
12708;DHT22;6418;50.824;4.718;2023-03-25T15:06:14;12.30;99.90
12708;DHT22;6418;50.824;4.718;2023-03-25T15:08:49;12.10;99.90
12708;DHT22;6418;50.824;4.718;2023-03-25T15:11:24;12.00;99.90
12708;DHT22;6418;50.824;4.718;2023-03-25T15:13:55;11.90;99.90
12708;DHT22;6418;50.824;4.718;2023-03-25T15:16:31;11.80;99.90
12708;DHT22;6418;50.824;4.718;2023-03-25T15:19:03;11.80;99.90
12708;DHT22;6418;50.824;4.718;2023-03-25T15:24:20;11.70;99.90
12708;DHT22;6418;50.824;4.718;2023-03-25T15:26:52;11.50;99.90
12708;DHT22;6418;50.824;4.718;2023-03-25T15:29:36;11.50;99.90
12708;DHT22;6418;50.824;4.718;2023-03-25T15:32:20;11.20;99.90
12708;DHT22;6418;50.824;4.718;2023-03-25T15:38:17;11.10;99.90
12708;DHT22;6418;50.824;4.718;2023-03-25T15:41:00;11.10;99.90
12708;DHT22;6418;50.824;4.718;2023-03-25T15:43:43;11.10;99.90
12708;DHT22;6418;50.824;4.718;2023-03-25T15:46:44;11.30;99.90
12708;DHT22;6418;50.824;4.718;2023-03-25T15:49:40;11.30;99.90
12708;DHT22;6418;50.824;4.718;2023-03-25T15:52:17;11.40;99.90
12708;DHT22;6418;50.824;4.718;2023-03-25T15:54:50;11.40;99.90
12708;DHT22;6418;50.824;4.718;2023-03-25T15:57:21;11.40;99.90
12708;DHT22;6418;50.824;4.718;2023-03-25T15:59:56;11.30;99.90
12708;DHT22;6418;50.824;4.718;2023-03-25T16:02:29;11.30;99.90
12708;DHT22;6418;50.824;4.718;2023-03-25T16:04:58;11.30;99.90
12708;DHT22;6418;50.824;4.718;2023-03-25T16:07:26;11.30;99.90
12708;DHT22;6418;50.824;4.718;2023-03-25T16:10:04;11.30;99.90
12708;DHT22;6418;50.824;4.718;2023-03-25T16:12:31;11.20;99.90
12708;DHT22;6418;50.824;4.718;2023-03-25T16:14:58;11.20;99.90
12708;DHT22;6418;50.824;4.718;2023-03-25T16:17:30;11.30;99.90
12708;DHT22;6418;50.824;4.718;2023-03-25T16:20:00;11.30;99.90
12708;DHT22;6418;50.824;4.718;2023-03-25T16:22:32;11.40;99.90
12708;DHT22;6418;50.824;4.718;2023-03-25T16:25:01;11.40;99.90
12708;DHT22;6418;50.824;4.718;2023-03-25T16:27:30;11.40;99.90
12708;DHT22;6418;50.824;4.718;2023-03-25T16:29:57;11.50;99.90
12708;DHT22;6418;50.824;4.718;2023-03-25T16:32:30;11.60;99.90
12708;DHT22;6418;50.824;4.718;2023-03-25T16:34:57;11.80;99.90
12708;DHT22;6418;50.824;4.718;2023-03-25T16:37:26;12.00;99.90
12708;DHT22;6418;50.824;4.718;2023-03-25T16:39:55;12.00;99.90
12708;DHT22;6418;50.824;4.718;2023-03-25T16:42:27;12.10;99.90